Time;durP1;ratioP1;P1;durP2;ratioP2;P2;SDS_P1;SDS_P2;PMS_P1;PMS_P2;Temp;Humidity;BMP_temperature;BMP_pressure;BME280_temperature;BME280_humidity;BME280_pressure;Samples;Min_cycle;Max_cycle;Signal;HPM_P1;HPM_P2
2024/01/06 09:21:52;;;;;;;;;3.00;3.00;;;;;;;;5105945;27;13416;-68
2024/01/06 09:24:17;;;;;;;;;2.00;2.00;;;;;;;;5107445;28;11387;-68
2024/01/06 09:26:44;;;;;;;;;2.00;2.00;;;;;;;;5105780;28;8792;-67
2024/01/06 09:29:09;;;;;;;;;1.00;1.00;;;;;;;;5109003;28;8847;-74
2024/01/06 09:31:34;;;;;;;;;2.00;1.00;;;;;;;;5107725;28;10970;-73
2024/01/06 09:34:01;;;;;;;;;1.50;1.25;;;;;;;;5105943;28;8814;-73
2024/01/06 09:36:26;;;;;;;;;2.75;0.75;;;;;;;;5087288;28;9889;-72
2024/01/06 09:38:52;;;;;;;;;2.50;2.00;;;;;;;;5043111;28;10867;-69
2024/01/06 09:41:17;;;;;;;;;1.00;1.00;;;;;;;;5038922;28;8844;-68
2024/01/06 09:43:42;;;;;;;;;8.75;6.00;;;;;;;;5046970;28;9541;-69
2024/01/06 09:46:17;;;;;;;;;17.75;14.75;;;;;;;;5033578;28;8847;-71
2024/01/06 09:48:43;;;;;;;;;20.00;19.25;;;;;;;;5031120;28;9692;-69
2024/01/06 09:51:10;;;;;;;;;6.75;6.25;;;;;;;;5035603;28;11504;-68
2024/01/06 09:53:39;;;;;;;;;8.25;6.50;;;;;;;;5038310;28;8832;-69
2024/01/06 09:56:04;;;;;;;;;9.25;9.00;;;;;;;;5033890;28;10736;-69
2024/01/06 09:58:32;;;;;;;;;19.00;17.75;;;;;;;;5037347;28;11987;-70
2024/01/06 10:00:59;;;;;;;;;10.00;6.75;;;;;;;;5029751;28;8904;-70
2024/01/06 10:03:26;;;;;;;;;19.25;15.25;;;;;;;;5025958;28;10756;-70
2024/01/06 10:05:51;;;;;;;;;6.00;6.00;;;;;;;;5021713;28;11257;-71
2024/01/06 10:08:17;;;;;;;;;9.50;7.00;;;;;;;;5022887;28;10901;-69
2024/01/06 10:10:44;;;;;;;;;2.25;2.00;;;;;;;;5028464;28;8853;-70
2024/01/06 10:13:10;;;;;;;;;1.25;1.25;;;;;;;;5037488;28;8967;-70
2024/01/06 10:15:36;;;;;;;;;1.25;1.00;;;;;;;;5029994;28;11146;-69
2024/01/06 10:18:03;;;;;;;;;1.50;1.50;;;;;;;;5026403;28;8792;-70
2024/01/06 10:20:28;;;;;;;;;2.00;2.00;;;;;;;;5032369;28;10505;-70
2024/01/06 10:22:54;;;;;;;;;2.00;1.00;;;;;;;;5034148;28;10607;-73
2024/01/06 10:25:22;;;;;;;;;1.00;1.00;;;;;;;;5047549;28;9553;-73
2024/01/06 10:27:48;;;;;;;;;1.00;1.00;;;;;;;;5037814;28;8796;-75
2024/01/06 10:30:17;;;;;;;;;2.00;2.00;;;;;;;;5028849;28;10325;-77
2024/01/06 10:32:43;;;;;;;;;2.00;2.00;;;;;;;;5020912;28;9392;-75
2024/01/06 10:35:08;;;;;;;;;3.00;2.00;;;;;;;;5008224;28;10355;-77
2024/01/06 10:37:34;;;;;;;;;5.00;2.75;;;;;;;;5009287;28;8814;-72
2024/01/06 10:40:28;;;;;;;;;0.00;0.00;;;;;;;;5016557;28;8839;-71
2024/01/06 10:42:58;;;;;;;;;4.00;2.25;;;;;;;;5003708;28;8839;-73
2024/01/06 10:45:23;;;;;;;;;2.00;2.00;;;;;;;;4988127;28;10477;-71
2024/01/06 10:47:49;;;;;;;;;7.75;3.75;;;;;;;;5004286;28;10523;-72
2024/01/06 10:50:16;;;;;;;;;7.00;3.75;;;;;;;;5003764;28;8867;-72
2024/01/06 10:52:43;;;;;;;;;7.50;6.00;;;;;;;;5001933;28;8925;-71
2024/01/06 10:55:08;;;;;;;;;5.50;5.50;;;;;;;;5006410;28;10590;-69
2024/01/06 10:57:34;;;;;;;;;3.00;3.00;;;;;;;;5009428;28;10686;-70
2024/01/06 11:00:00;;;;;;;;;3.00;1.00;;;;;;;;5008879;28;8909;-69
2024/01/06 11:02:25;;;;;;;;;3.00;3.00;;;;;;;;5009270;28;8816;-70
2024/01/06 11:04:51;;;;;;;;;3.00;2.50;;;;;;;;5009927;28;8922;-68
2024/01/06 11:07:17;;;;;;;;;2.25;2.25;;;;;;;;5009283;28;8924;-69
2024/01/06 11:10:06;;;;;;;;;3.00;2.00;;;;;;;;5008657;28;8970;-69
2024/01/06 11:12:32;;;;;;;;;1.00;0.00;;;;;;;;5003431;28;10483;-69
2024/01/06 11:14:57;;;;;;;;;0.75;0.75;;;;;;;;5006541;28;10240;-70
2024/01/06 11:17:41;;;;;;;;;0.50;0.50;;;;;;;;4990341;28;9150;-69
2024/01/06 11:20:06;;;;;;;;;5.75;4.00;;;;;;;;5003470;28;8822;-69
2024/01/06 11:22:31;;;;;;;;;37.00;33.75;;;;;;;;5009988;28;11429;-69
2024/01/06 11:25:04;;;;;;;;;42.50;39.75;;;;;;;;5010896;28;8817;-70
2024/01/06 11:27:30;;;;;;;;;11.00;6.25;;;;;;;;5032164;28;8830;-70
2024/01/06 11:30:00;;;;;;;;;5.00;4.00;;;;;;;;5030920;28;11004;-71
2024/01/06 11:32:25;;;;;;;;;1.75;1.75;;;;;;;;5025245;28;8822;-70
2024/01/06 11:34:52;;;;;;;;;2.00;2.00;;;;;;;;4991379;28;10484;-68
2024/01/06 11:37:18;;;;;;;;;2.00;2.00;;;;;;;;5011242;28;8815;-71
2024/01/06 11:39:44;;;;;;;;;1.75;0.75;;;;;;;;5012565;28;10376;-69
2024/01/06 11:42:13;;;;;;;;;1.00;1.00;;;;;;;;5010156;28;8822;-72
2024/01/06 11:44:39;;;;;;;;;1.75;1.75;;;;;;;;5009141;28;8830;-70
2024/01/06 11:47:05;;;;;;;;;2.00;2.00;;;;;;;;5009878;28;10573;-71
2024/01/06 11:49:30;;;;;;;;;5.75;5.00;;;;;;;;5012768;28;10648;-70
2024/01/06 11:51:56;;;;;;;;;1.00;0.25;;;;;;;;5029380;28;10790;-71
2024/01/06 11:54:22;;;;;;;;;1.00;1.00;;;;;;;;5031090;28;9524;-71
2024/01/06 11:56:47;;;;;;;;;1.25;1.25;;;;;;;;5031121;28;8787;-70
2024/01/06 11:59:13;;;;;;;;;1.00;1.00;;;;;;;;5031271;28;8819;-70
2024/01/06 12:01:38;;;;;;;;;1.00;1.00;;;;;;;;5029631;28;8874;-73
2024/01/06 12:04:05;;;;;;;;;1.25;1.25;;;;;;;;5029570;28;8796;-71
2024/01/06 12:06:30;;;;;;;;;2.00;2.00;;;;;;;;5030405;28;8846;-69
2024/01/06 12:09:05;;;;;;;;;3.25;1.75;;;;;;;;5031447;28;11252;-69
2024/01/06 12:11:31;;;;;;;;;3.00;2.00;;;;;;;;5027959;28;8851;-69
2024/01/06 12:13:56;;;;;;;;;5.00;5.00;;;;;;;;5029267;28;10568;-69
2024/01/06 12:16:22;;;;;;;;;13.00;8.75;;;;;;;;5028882;28;9559;-70
2024/01/06 12:18:47;;;;;;;;;18.25;16.75;;;;;;;;4999337;28;8972;-69
2024/01/06 12:21:12;;;;;;;;;9.00;7.25;;;;;;;;4989494;28;8836;-69
2024/01/06 12:23:37;;;;;;;;;6.00;5.00;;;;;;;;4991249;28;8952;-70
2024/01/06 12:26:04;;;;;;;;;4.25;2.00;;;;;;;;4991087;28;8801;-70
2024/01/06 12:28:32;;;;;;;;;4.25;4.25;;;;;;;;4991785;28;8801;-69
2024/01/06 12:30:58;;;;;;;;;6.75;6.75;;;;;;;;5005854;28;10818;-69
2024/01/06 12:33:23;;;;;;;;;1.00;1.00;;;;;;;;5006104;28;10800;-69
2024/01/06 12:35:49;;;;;;;;;4.00;4.00;;;;;;;;4990897;28;8797;-69
2024/01/06 12:38:14;;;;;;;;;4.50;3.50;;;;;;;;4990848;28;8835;-70
2024/01/06 12:40:40;;;;;;;;;7.50;7.50;;;;;;;;4992215;28;8800;-68
2024/01/06 12:43:06;;;;;;;;;26.00;24.00;;;;;;;;5005909;28;9590;-69
2024/01/06 12:45:35;;;;;;;;;61.00;48.00;;;;;;;;5005522;28;11665;-69
2024/01/06 12:48:00;;;;;;;;;40.25;32.50;;;;;;;;4990596;28;8785;-69
2024/01/06 12:50:25;;;;;;;;;44.00;37.50;;;;;;;;5005404;28;11667;-68
2024/01/06 12:52:51;;;;;;;;;2.50;2.00;;;;;;;;5005792;28;8947;-69
2024/01/06 12:55:16;;;;;;;;;3.25;1.00;;;;;;;;4992715;28;8808;-69
2024/01/06 12:57:42;;;;;;;;;2.75;1.00;;;;;;;;4999269;28;8843;-69
2024/01/06 13:00:09;;;;;;;;;4.00;2.75;;;;;;;;4990450;28;8801;-69
2024/01/06 13:02:34;;;;;;;;;3.00;1.25;;;;;;;;4990285;28;8785;-68
2024/01/06 13:04:59;;;;;;;;;2.25;2.00;;;;;;;;4990216;28;10603;-69
2024/01/06 13:07:25;;;;;;;;;1.00;1.00;;;;;;;;4990566;28;8801;-69
2024/01/06 13:09:50;;;;;;;;;2.00;2.00;;;;;;;;4992721;28;8848;-69
2024/01/06 13:12:18;;;;;;;;;3.25;2.25;;;;;;;;4990459;28;8805;-69
2024/01/06 13:14:44;;;;;;;;;3.50;3.50;;;;;;;;4990558;28;9494;-70
2024/01/06 13:17:09;;;;;;;;;3.00;3.00;;;;;;;;4991761;28;10581;-69
2024/01/06 13:19:35;;;;;;;;;3.50;2.25;;;;;;;;5009454;28;11132;-69
2024/01/06 13:22:00;;;;;;;;;2.00;2.00;;;;;;;;5010075;28;8913;-69
2024/01/06 13:24:25;;;;;;;;;2.75;2.00;;;;;;;;5009955;28;8836;-69
2024/01/06 13:26:51;;;;;;;;;2.75;2.75;;;;;;;;5010282;28;8892;-69
2024/01/06 13:29:17;;;;;;;;;2.75;2.00;;;;;;;;5009847;28;8790;-69
2024/01/06 13:31:44;;;;;;;;;3.00;1.00;;;;;;;;5009874;28;8834;-69
2024/01/06 13:34:09;;;;;;;;;2.00;2.00;;;;;;;;5009489;28;10710;-70
2024/01/06 13:36:34;;;;;;;;;2.00;1.00;;;;;;;;5009527;28;10657;-68
2024/01/06 13:39:00;;;;;;;;;1.00;1.00;;;;;;;;5009777;28;8829;-68
2024/01/06 13:41:26;;;;;;;;;1.00;1.00;;;;;;;;5011168;28;8921;-69
2024/01/06 13:43:52;;;;;;;;;1.00;1.00;;;;;;;;5009794;28;8802;-69
2024/01/06 13:46:17;;;;;;;;;0.25;0.25;;;;;;;;5009644;28;10495;-69
2024/01/06 13:48:42;;;;;;;;;2.00;1.00;;;;;;;;5009510;28;8802;-68
2024/01/06 13:51:08;;;;;;;;;2.00;2.00;;;;;;;;5009820;28;8840;-69
2024/01/06 13:53:33;;;;;;;;;2.00;1.00;;;;;;;;5009844;28;8936;-69
2024/01/06 13:55:59;;;;;;;;;2.25;2.25;;;;;;;;5024672;28;9565;-69
2024/01/06 13:58:24;;;;;;;;;1.50;1.50;;;;;;;;5009605;28;8783;-69
2024/01/06 14:00:50;;;;;;;;;2.00;1.50;;;;;;;;5024440;28;8815;-70
2024/01/06 14:03:15;;;;;;;;;1.00;1.00;;;;;;;;5009204;28;8812;-69
2024/01/06 14:05:41;;;;;;;;;1.00;1.00;;;;;;;;5009241;28;8806;-68
2024/01/06 14:08:06;;;;;;;;;1.00;1.00;;;;;;;;5012257;28;8803;-69
2024/01/06 14:10:31;;;;;;;;;1.00;1.00;;;;;;;;5014498;28;8857;-72
2024/01/06 14:12:57;;;;;;;;;1.00;1.00;;;;;;;;5029105;28;8853;-69
2024/01/06 14:15:22;;;;;;;;;1.00;1.00;;;;;;;;5012962;28;8786;-69
2024/01/06 14:17:51;;;;;;;;;1.00;1.00;;;;;;;;5012926;28;8807;-69
2024/01/06 14:20:20;;;;;;;;;2.25;1.00;;;;;;;;5012900;28;8814;-69
2024/01/06 14:22:45;;;;;;;;;2.00;1.00;;;;;;;;5012867;28;10470;-69
2024/01/06 14:25:11;;;;;;;;;2.00;2.00;;;;;;;;5012774;28;11278;-69
2024/01/06 14:27:37;;;;;;;;;1.00;1.00;;;;;;;;5013474;28;9671;-69
2024/01/06 14:30:02;;;;;;;;;1.00;1.00;;;;;;;;5027529;28;10589;-69
2024/01/06 14:32:29;;;;;;;;;1.00;1.00;;;;;;;;5012807;28;8905;-70
2024/01/06 14:34:54;;;;;;;;;2.00;1.00;;;;;;;;5027664;28;8810;-69
2024/01/06 14:37:19;;;;;;;;;2.25;2.25;;;;;;;;5012547;28;10471;-69
2024/01/06 14:39:45;;;;;;;;;3.00;1.75;;;;;;;;5012607;28;8778;-70
2024/01/06 14:42:10;;;;;;;;;1.00;1.00;;;;;;;;5013865;28;8798;-73
2024/01/06 14:44:36;;;;;;;;;2.25;1.25;;;;;;;;5012353;28;8799;-70
2024/01/06 14:47:01;;;;;;;;;2.00;2.00;;;;;;;;5027565;28;8826;-69
2024/01/06 14:49:26;;;;;;;;;2.00;2.00;;;;;;;;5012221;28;8907;-71
2024/01/06 14:51:52;;;;;;;;;3.00;3.00;;;;;;;;5012288;28;8838;-69
2024/01/06 14:54:17;;;;;;;;;1.75;1.50;;;;;;;;5011044;28;8909;-68
2024/01/06 14:56:42;;;;;;;;;7.00;6.00;;;;;;;;5003192;28;8837;-67
2024/01/06 14:59:08;;;;;;;;;12.00;11.50;;;;;;;;5003129;28;8798;-69
2024/01/06 15:01:34;;;;;;;;;7.00;7.00;;;;;;;;5012309;28;8810;-68
2024/01/06 15:03:59;;;;;;;;;9.25;9.25;;;;;;;;5004822;28;8821;-69
2024/01/06 15:06:24;;;;;;;;;15.00;15.00;;;;;;;;5000602;28;8840;-69
2024/01/06 15:08:50;;;;;;;;;10.50;10.50;;;;;;;;4999032;28;8814;-68
2024/01/06 15:11:15;;;;;;;;;11.50;10.25;;;;;;;;5002825;28;8957;-69
2024/01/06 15:13:41;;;;;;;;;18.25;17.75;;;;;;;;5003236;28;8839;-68
2024/01/06 15:16:06;;;;;;;;;14.75;14.25;;;;;;;;5001683;28;8813;-68
2024/01/06 15:18:32;;;;;;;;;19.00;18.50;;;;;;;;5002014;28;8813;-69
2024/01/06 15:20:58;;;;;;;;;26.25;20.00;;;;;;;;4999647;28;8908;-69
2024/01/06 15:23:24;;;;;;;;;17.00;16.00;;;;;;;;5002453;28;8809;-69
2024/01/06 15:25:49;;;;;;;;;17.75;17.75;;;;;;;;5001485;28;11530;-69
2024/01/06 15:28:14;;;;;;;;;20.00;18.00;;;;;;;;5004833;28;8786;-69
2024/01/06 15:30:39;;;;;;;;;14.25;13.75;;;;;;;;5000304;28;8832;-69
2024/01/06 15:33:05;;;;;;;;;14.50;14.50;;;;;;;;5007455;28;8822;-69
2024/01/06 15:35:30;;;;;;;;;17.50;12.00;;;;;;;;5011562;28;9029;-69
2024/01/06 15:37:55;;;;;;;;;13.00;12.00;;;;;;;;5013838;28;9536;-70
2024/01/06 15:40:21;;;;;;;;;8.50;8.50;;;;;;;;5011796;28;8822;-70
2024/01/06 15:42:47;;;;;;;;;8.25;8.00;;;;;;;;5011685;28;8806;-72
2024/01/06 15:45:12;;;;;;;;;7.75;6.00;;;;;;;;4998828;28;11541;-72
2024/01/06 15:47:38;;;;;;;;;6.75;6.50;;;;;;;;4999804;28;8845;-72
2024/01/06 15:50:03;;;;;;;;;6.00;6.00;;;;;;;;5001910;28;8832;-72
2024/01/06 15:52:28;;;;;;;;;6.00;6.00;;;;;;;;4998980;28;8886;-72
2024/01/06 15:54:54;;;;;;;;;4.00;4.00;;;;;;;;5008380;28;8822;-73
2024/01/06 15:57:19;;;;;;;;;37.00;32.25;;;;;;;;5002150;28;8795;-72
2024/01/06 15:59:45;;;;;;;;;17.00;13.75;;;;;;;;5015652;28;8837;-72
2024/01/06 16:02:11;;;;;;;;;16.00;15.25;;;;;;;;5001836;28;8825;-72
2024/01/06 16:04:36;;;;;;;;;15.75;12.50;;;;;;;;5001474;28;8915;-72
2024/01/06 16:07:02;;;;;;;;;4.00;4.00;;;;;;;;5003453;28;8809;-72
2024/01/06 16:09:27;;;;;;;;;7.50;4.75;;;;;;;;5002836;28;8832;-71
2024/01/06 16:11:55;;;;;;;;;4.25;3.00;;;;;;;;4999927;28;8896;-70
2024/01/06 16:14:20;;;;;;;;;3.00;3.00;;;;;;;;5003248;28;8817;-71
2024/01/06 16:16:46;;;;;;;;;5.50;3.50;;;;;;;;4998852;28;10943;-72
2024/01/06 16:19:11;;;;;;;;;7.25;6.75;;;;;;;;5019317;28;8853;-71
2024/01/06 16:21:37;;;;;;;;;5.00;3.75;;;;;;;;5000288;28;8814;-72
2024/01/06 16:24:02;;;;;;;;;6.50;5.50;;;;;;;;5001456;28;9528;-71
2024/01/06 16:26:28;;;;;;;;;6.25;3.75;;;;;;;;5003563;28;8913;-71
2024/01/06 16:28:53;;;;;;;;;2.00;2.00;;;;;;;;5012199;28;8854;-72
2024/01/06 16:31:19;;;;;;;;;67.25;54.00;;;;;;;;5008654;28;8822;-69
2024/01/06 16:33:48;;;;;;;;;63.50;51.75;;;;;;;;5009005;28;8888;-73
2024/01/06 16:36:14;;;;;;;;;39.25;36.25;;;;;;;;5009135;28;12564;-71
2024/01/06 16:38:40;;;;;;;;;24.75;21.00;;;;;;;;5012596;28;11567;-69
2024/01/06 16:41:05;;;;;;;;;13.75;9.75;;;;;;;;5009181;28;8841;-73
2024/01/06 16:43:38;;;;;;;;;2.00;2.00;;;;;;;;5002858;28;8896;-74
